.
WxDataArchive / Data Records for 2015-07-15
2015-07-14 July 2015 2015-07-16

Data Records for Wednesday, 15 July 2015

Time	Temp	Chill	HIndex	Humid	Dewpt	 Wind 	HiWind	WindDir	Rain 	Barom
-----	----	-----	------	-----	-----	------	------	-------	-----	-----
00:00	68.9	68.9	68.9	84	63.9	1	3	292	0.00	29.741 
00:05	68.8	68.8	68.8	85	64.1	1	4	292	0.00	29.741 
00:10	68.6	68.6	68.6	85	63.9	1	4	292	0.00	29.741 
00:15	68.6	68.6	68.6	85	63.9	0	2	292	0.00	29.743 
00:20	68.4	68.4	68.4	85	63.7	1	4	292	0.00	29.743 
00:25	68.3	68.3	68.3	85	63.6	0	1	292	0.00	29.743 
00:30	68.3	68.3	68.3	86	63.9	0	1	292	0.00	29.745 
00:35	68.1	68.1	68.1	86	63.7	0	2	292	0.00	29.745 
00:40	68.1	68.1	68.1	86	63.7	0	1	292	0.00	29.745 
00:45	67.9	67.9	67.9	86	63.5	0	2	292	0.00	29.749 
00:50	67.9	67.9	67.9	87	63.9	0	1	292	0.00	29.749 
00:55	67.9	67.9	67.9	87	63.9	0	2	292	0.00	29.749 
01:00	67.8	67.8	67.8	87	63.8	0	1	292	0.00	29.748 
01:05	67.8	67.8	67.8	87	63.8	0	1	292	0.00	29.748 
01:10	67.8	67.8	67.8	87	63.8	0	3	292	0.00	29.748 
01:15	67.8	67.8	67.8	88	64.1	0	2	292	0.00	29.747 
01:20	67.6	67.6	67.6	88	63.9	0	2	292	0.00	29.747 
01:25	67.6	67.6	67.6	88	63.9	0	2	292	0.00	29.747 
01:30	67.4	67.4	67.4	88	63.7	0	1	292	0.00	29.750 
01:35	67.4	67.4	67.4	89	64.0	0	1	292	0.00	29.750 
01:40	67.3	67.3	67.3	89	63.9	0	3	292	0.00	29.750 
01:45	67.3	67.3	67.3	89	63.9	0	2	292	0.00	29.755 
01:50	67.1	67.1	67.1	90	64.1	0	2	292	0.00	29.755 
01:55	67.1	67.1	67.1	90	64.1	0	1	292	0.00	29.755 
02:00	67.1	67.1	67.1	90	64.1	0	1	292	0.00	29.761 
02:05	67.1	67.1	67.1	90	64.1	0	1	292	0.00	29.761 
02:10	67.1	67.1	67.1	90	64.1	0	0	---	0.00	29.761 
02:15	66.9	66.9	66.9	90	63.9	0	1	292	0.00	29.762 
02:20	66.8	66.8	66.8	91	64.1	0	0	---	0.00	29.762 
02:25	66.6	66.6	66.6	91	63.9	0	1	292	0.00	29.762 
02:30	66.6	66.6	66.6	91	63.9	0	1	292	0.00	29.767 
02:35	66.4	66.4	66.4	91	63.7	0	1	292	0.00	29.767 
02:40	66.4	66.4	66.4	91	63.7	0	1	292	0.00	29.767 
02:45	66.3	66.3	66.3	91	63.6	0	0	---	0.00	29.770 
02:50	66.1	66.1	66.1	92	63.7	0	1	292	0.00	29.770 
02:55	66.1	66.1	66.1	92	63.7	0	1	292	0.00	29.770 
03:00	66.0	66.0	66.0	92	63.6	0	0	---	0.00	29.775 
03:05	66.0	66.0	66.0	92	63.6	0	0	---	0.00	29.775 
03:10	66.0	66.0	66.0	92	63.6	0	1	292	0.00	29.775 
03:15	65.8	65.8	65.8	92	63.4	0	1	292	0.00	29.779 
03:20	65.8	65.8	65.8	92	63.4	0	1	292	0.00	29.779 
03:25	65.8	65.8	65.8	92	63.4	0	1	292	0.00	29.779 
03:30	65.8	65.8	65.8	92	63.4	0	2	292	0.00	29.789 
03:35	65.6	65.6	65.6	92	63.2	0	1	292	0.00	29.789 
03:40	65.6	65.6	65.6	92	63.2	0	0	---	0.00	29.789 
03:45	65.5	65.5	65.5	92	63.1	0	0	---	0.00	29.793 
03:50	65.5	65.5	65.5	93	63.4	0	0	---	0.00	29.793 
03:55	65.3	65.3	65.3	93	63.2	0	0	---	0.00	29.793 
04:00	65.2	65.2	65.2	93	63.1	0	0	---	0.00	29.794 
04:05	65.2	65.2	65.2	93	63.1	0	1	292	0.00	29.794 
04:10	65.2	65.2	65.2	93	63.1	0	0	---	0.00	29.794 
04:15	65.0	65.0	65.0	93	62.9	0	0	---	0.00	29.798 
04:20	65.0	65.0	65.0	93	62.9	0	0	---	0.00	29.798 
04:25	65.0	65.0	65.0	93	62.9	0	0	---	0.00	29.798 
04:30	64.8	64.8	64.8	93	62.7	0	0	---	0.00	29.802 
04:35	64.8	64.8	64.8	93	62.7	0	0	---	0.00	29.802 
04:40	65.0	65.0	65.0	93	62.9	0	1	292	0.00	29.802 
04:45	65.0	65.0	65.0	93	62.9	0	1	292	0.00	29.811 
04:50	65.0	65.0	65.0	93	62.9	0	3	292	0.00	29.811 
04:55	64.8	64.8	64.8	93	62.7	0	2	292	0.00	29.811 
05:00	64.5	64.5	64.5	93	62.4	1	5	338	0.00	29.815 
05:05	64.3	64.3	64.3	92	61.9	1	4	338	0.00	29.815 
05:10	64.3	64.3	64.3	90	61.3	1	3	338	0.00	29.815 
05:15	64.5	64.5	64.5	88	60.9	1	4	338	0.00	29.820 
05:20	64.5	64.5	64.5	85	59.9	2	6	338	0.00	29.820 
05:25	64.7	64.7	64.7	83	59.4	1	3	338	0.00	29.820 
05:30	64.7	64.7	64.7	82	59.1	1	2	338	0.00	29.828 
05:35	64.5	64.5	64.5	81	58.5	1	4	338	0.00	29.828 
05:40	64.3	64.3	64.3	78	57.3	1	5	338	0.00	29.828 
05:45	64.2	64.2	64.2	74	55.7	2	7	315	0.00	29.832 
05:50	64.2	64.2	64.2	73	55.4	1	4	315	0.00	29.832 
05:55	64.0	64.0	64.0	72	54.8	0	4	292	0.00	29.832 
06:00	64.0	64.0	64.0	71	54.4	0	2	292	0.00	29.838 
06:05	63.7	63.7	63.7	70	53.7	0	3	292	0.00	29.838 
06:10	63.5	63.5	63.5	70	53.5	1	4	292	0.00	29.838 
06:15	63.4	63.4	63.4	69	53.0	1	4	315	0.00	29.848 
06:20	63.4	63.4	63.4	69	53.0	1	3	315	0.00	29.848 
06:25	63.2	63.2	63.2	69	52.9	0	3	315	0.00	29.848 
06:30	63.1	63.1	63.1	69	52.8	0	2	315	0.00	29.862 
06:35	62.7	62.7	62.7	68	52.0	0	3	315	0.00	29.862 
06:40	62.7	62.7	62.7	68	52.0	1	3	315	0.00	29.862 
06:45	62.6	62.6	62.6	67	51.5	1	3	315	0.00	29.863 
06:50	62.6	62.6	62.6	67	51.5	1	3	315	0.00	29.863 
06:55	62.4	62.4	62.4	67	51.3	0	2	315	0.00	29.863 
07:00	62.4	62.4	62.4	66	50.9	1	4	315	0.00	29.863 
07:05	62.4	62.4	62.4	67	51.3	0	4	338	0.00	29.863 
07:10	62.4	62.4	62.4	66	50.9	1	5	315	0.00	29.863 
07:15	62.6	62.6	62.6	66	51.1	1	4	338	0.00	29.867 
07:20	62.6	62.6	62.6	66	51.1	1	4	292	0.00	29.867 
07:25	62.6	62.6	62.6	66	51.1	1	3	292	0.00	29.867 
07:30	62.6	62.6	62.6	65	50.7	1	3	292	0.00	29.876 
07:35	62.7	62.7	62.7	65	50.8	1	3	315	0.00	29.876 
07:40	62.9	62.9	62.9	64	50.5	1	3	315	0.00	29.876 
07:45	63.1	63.1	63.1	64	50.7	1	5	112	0.00	29.879 
07:50	63.2	63.2	63.2	63	50.4	1	6	315	0.00	29.879 
07:55	63.4	63.4	63.4	64	51.0	1	4	315	0.00	29.879 
08:00	63.5	63.5	63.5	63	50.7	1	4	68	0.00	29.883 
08:05	63.7	63.7	63.7	64	51.3	1	4	315	0.00	29.883 
08:10	64.0	64.0	64.0	64	51.6	1	4	22	0.00	29.883 
08:15	64.2	64.2	64.2	64	51.8	1	3	90	0.00	29.882 
08:20	64.3	64.3	64.3	64	51.9	1	3	292	0.00	29.882 
08:25	64.7	64.7	64.7	64	52.2	1	3	315	0.00	29.882 
08:30	65.0	65.0	65.0	62	51.7	1	5	292	0.00	29.887 
08:35	65.0	65.0	65.0	60	50.8	2	7	135	0.00	29.887 
08:40	65.0	65.0	65.0	60	50.8	2	5	338	0.00	29.887 
08:45	65.0	65.0	65.0	61	51.2	1	5	315	0.00	29.895 
08:50	65.3	65.3	65.3	62	51.9	0	3	22	0.00	29.895 
08:55	65.8	65.8	65.8	60	51.5	2	7	112	0.00	29.895 
09:00	66.0	66.0	66.0	60	51.7	1	6	112	0.00	29.901 
09:05	66.0	66.0	66.0	62	52.6	1	5	0	0.00	29.901 
09:10	66.1	66.1	66.1	61	52.3	1	4	338	0.00	29.901 
09:15	66.1	66.1	66.1	59	51.3	2	6	315	0.00	29.911 
09:20	66.1	66.1	66.1	59	51.3	2	5	315	0.00	29.911 
09:25	66.3	66.3	66.3	61	52.4	1	4	292	0.00	29.911 
09:30	66.4	66.4	66.4	59	51.6	1	4	292	0.00	29.910 
09:35	66.8	66.8	66.8	62	53.4	1	3	292	0.00	29.910 
09:40	67.1	67.1	67.1	61	53.2	0	3	292	0.00	29.910 
09:45	67.6	67.6	67.6	60	53.2	1	3	135	0.00	29.920 
09:50	68.1	68.1	68.1	59	53.2	1	4	68	0.00	29.920 
09:55	68.6	68.6	68.6	58	53.2	1	4	90	0.00	29.920 
10:00	69.1	69.1	69.1	59	54.2	1	3	90	0.00	29.922 
10:05	69.3	69.3	69.3	58	53.9	1	4	90	0.00	29.922 
10:10	69.3	69.3	69.3	56	52.9	1	4	90	0.00	29.922 
10:15	69.6	69.6	69.6	58	54.2	1	6	112	0.00	29.927 
10:20	69.9	69.9	69.9	56	53.5	1	4	112	0.00	29.927 
10:25	70.1	70.1	70.1	56	53.7	1	4	90	0.00	29.927 
10:30	70.1	70.1	70.1	55	53.2	2	4	90	0.00	29.925 
10:35	70.1	70.1	70.1	58	54.6	2	5	112	0.00	29.925 
10:40	69.9	69.9	69.9	57	54.0	1	3	112	0.00	29.925 
10:45	70.1	70.1	70.1	57	54.1	2	5	112	0.00	29.921 
10:50	70.1	70.1	70.1	57	54.1	1	6	90	0.00	29.921 
10:55	70.3	70.3	70.3	56	53.8	1	3	90	0.00	29.921 
11:00	70.8	70.8	70.8	58	55.3	0	1	90	0.00	29.927 
11:05	71.1	71.1	71.1	55	54.1	1	5	112	0.00	29.927 
11:10	71.1	71.1	71.1	53	53.1	1	4	112	0.00	29.927 
11:15	71.1	71.1	71.1	57	55.1	1	5	112	0.00	29.937 
11:20	70.9	70.9	70.9	58	55.4	1	4	45	0.00	29.937 
11:25	71.3	71.3	71.3	56	54.8	1	5	135	0.00	29.937 
11:30	71.5	71.5	71.5	56	55.0	1	3	135	0.00	29.943 
11:35	71.1	71.1	71.1	54	53.6	1	4	22	0.00	29.943 
11:40	70.8	70.8	70.8	54	53.3	1	3	68	0.00	29.943 
11:45	70.4	70.4	70.4	55	53.4	1	4	0	0.00	29.953 
11:50	70.8	70.8	70.8	56	54.3	1	3	338	0.00	29.953 
11:55	70.9	70.9	70.9	53	52.9	1	4	338	0.00	29.953 
12:00	70.9	70.9	70.9	50	51.3	1	4	315	0.00	29.945 
12:05	71.5	71.5	71.5	51	52.4	1	3	315	0.00	29.945 
12:10	71.8	71.8	71.8	48	51.0	0	3	0	0.00	29.945 
12:15	72.3	72.3	72.3	47	50.9	2	5	90	0.00	29.940 
12:20	72.5	72.5	72.5	50	52.8	1	4	90	0.00	29.940 
12:25	72.5	72.5	72.5	48	51.7	0	2	90	0.00	29.940 
12:30	72.5	72.5	72.5	51	53.3	0	3	45	0.00	29.939 
12:35	73.0	73.0	73.0	49	52.7	1	5	45	0.00	29.939 
12:40	73.3	73.3	73.3	54	55.6	0	3	90	0.00	29.939 
12:45	73.9	73.9	73.9	49	53.5	1	4	90	0.00	29.939 
12:50	73.9	73.9	73.9	48	53.0	2	5	112	0.00	29.939 
12:55	73.9	73.9	73.9	46	51.8	2	6	90	0.00	29.939 
13:00	73.7	73.7	73.7	48	52.8	1	4	270	0.00	29.936 
13:05	73.7	73.7	73.7	47	52.2	2	5	90	0.00	29.936 
13:10	73.7	73.7	73.7	47	52.2	1	3	112	0.00	29.936 
13:15	73.9	73.9	73.9	49	53.5	1	3	112	0.00	29.928 
13:20	73.5	73.5	73.5	48	52.6	1	3	315	0.00	29.928 
13:25	73.7	73.7	73.7	48	52.8	1	4	112	0.00	29.928 
13:30	73.9	73.9	73.9	50	54.1	1	4	112	0.00	29.934 
13:35	74.4	74.4	74.4	50	54.5	1	4	112	0.00	29.934 
13:40	74.6	74.6	74.6	48	53.6	1	4	112	0.00	29.934 
13:45	74.6	74.6	74.6	49	54.2	0	2	112	0.00	29.931 
13:50	74.6	74.6	74.6	47	53.0	1	3	292	0.00	29.931 
13:55	74.7	74.7	74.7	47	53.1	1	4	112	0.00	29.931 
14:00	75.1	75.1	77.7	51	55.7	0	2	112	0.00	29.936 
14:05	75.1	75.1	77.6	44	51.7	1	4	112	0.00	29.936 
14:10	75.4	75.4	77.8	48	54.3	0	2	112	0.00	29.936 
14:15	75.3	75.3	77.7	44	51.9	1	5	135	0.00	29.940 
14:20	75.3	75.3	77.7	45	52.5	0	1	90	0.00	29.940 
14:25	75.6	75.6	77.8	46	53.3	0	3	90	0.00	29.940 
14:30	75.6	75.6	77.8	43	51.5	1	5	90	0.00	29.943 
14:35	75.6	75.6	77.9	48	54.5	1	4	90	0.00	29.943 
14:40	75.8	75.8	78.0	48	54.7	1	2	90	0.00	29.943 
14:45	76.1	76.1	78.0	43	52.0	2	4	90	0.00	29.946 
14:50	76.1	76.1	78.0	45	53.2	2	6	90	0.00	29.946 
14:55	76.0	76.0	78.0	45	53.1	1	4	112	0.00	29.946 
15:00	75.6	75.6	77.9	47	53.9	1	3	338	0.00	29.944 
15:05	76.0	76.0	78.0	48	54.9	1	5	90	0.00	29.944 
15:10	76.0	76.0	78.0	44	52.5	1	4	90	0.00	29.944 
15:15	76.1	76.1	77.9	42	51.3	2	5	112	0.00	29.949 
15:20	76.1	76.1	78.0	45	53.2	2	6	90	0.00	29.949 
15:25	76.3	76.3	78.1	44	52.8	1	4	90	0.00	29.949 
15:30	76.5	76.5	78.1	42	51.7	2	5	90	0.00	29.945 
15:35	76.7	76.7	78.2	42	51.9	0	3	90	0.00	29.945 
15:40	76.7	76.7	78.2	43	52.5	0	3	90	0.00	29.945 
15:45	77.0	77.0	78.2	40	50.8	0	2	90	0.00	29.954 
15:50	77.2	77.2	78.5	43	52.9	0	1	90	0.00	29.954 
15:55	77.4	77.4	78.5	42	52.5	0	3	135	0.00	29.954 
16:00	77.4	77.4	78.5	42	52.5	0	2	45	0.00	29.955 
16:05	77.2	77.2	78.5	44	53.6	0	2	90	0.00	29.955 
16:10	77.2	77.2	78.6	46	54.8	0	1	90	0.00	29.955 
16:15	77.4	77.4	78.6	43	53.1	0	4	90	0.00	29.954 
16:20	77.6	77.6	78.7	43	53.3	0	4	315	0.00	29.954 
16:25	77.4	77.4	78.6	43	53.1	0	2	315	0.00	29.954 
16:30	77.0	77.0	78.2	40	50.8	1	3	315	0.00	29.954 
16:35	77.2	77.2	78.6	46	54.8	1	3	22	0.00	29.954 
16:40	77.4	77.4	78.6	43	53.1	1	4	90	0.00	29.954 
16:45	77.4	77.4	78.6	44	53.8	0	3	90	0.00	29.949 
16:50	77.4	77.4	78.4	40	51.2	1	4	90	0.00	29.949 
16:55	77.4	77.4	78.6	43	53.1	1	4	112	0.00	29.949 
17:00	77.2	77.2	78.3	40	51.0	2	5	90	0.00	29.957 
17:05	77.0	77.0	78.3	41	51.5	1	4	90	0.00	29.957 
17:10	77.4	77.4	78.6	45	54.4	0	3	90	0.00	29.957 
17:15	77.4	77.4	78.5	42	52.5	1	4	90	0.00	29.956 
17:20	77.6	77.6	78.7	43	53.3	0	1	90	0.00	29.956 
17:25	77.4	77.4	78.5	41	51.8	0	2	90	0.00	29.956 
17:30	77.2	77.2	78.4	41	51.7	0	2	90	0.00	29.955 
17:35	77.2	77.2	78.4	41	51.7	0	2	90	0.00	29.955 
17:40	77.4	77.4	78.5	42	52.5	0	2	90	0.00	29.955 
17:45	77.4	77.4	78.5	42	52.5	1	3	90	0.00	29.957 
17:50	77.0	77.0	78.2	39	50.1	1	3	90	0.00	29.957 
17:55	76.8	76.8	78.2	41	51.3	0	2	90	0.00	29.957 
18:00	76.7	76.7	78.3	46	54.3	1	5	90	0.00	29.960 
18:05	76.7	76.7	78.3	44	53.1	0	2	68	0.00	29.960 
18:10	76.3	76.3	78.1	44	52.8	1	4	68	0.00	29.960 
18:15	76.3	76.3	78.1	45	53.4	0	3	68	0.00	29.957 
18:20	76.1	76.1	78.0	44	52.6	0	1	68	0.00	29.957 
18:25	76.1	76.1	78.0	45	53.2	0	2	68	0.00	29.957 
18:30	76.1	76.1	78.0	45	53.2	0	3	68	0.00	29.958 
18:35	76.0	76.0	78.0	45	53.1	1	4	68	0.00	29.958 
18:40	75.8	75.8	77.9	44	52.3	1	4	68	0.00	29.958 
18:45	75.8	75.8	77.9	46	53.5	1	3	68	0.00	29.958 
18:50	75.8	75.8	77.9	46	53.5	0	2	68	0.00	29.958 
18:55	75.6	75.6	77.8	45	52.7	1	4	68	0.00	29.958 
19:00	75.4	75.4	77.7	45	52.6	0	1	68	0.00	29.958 
19:05	75.3	75.3	77.7	47	53.7	1	4	68	0.00	29.958 
19:10	75.1	75.1	77.6	45	52.3	1	4	68	0.00	29.958 
19:15	74.9	74.9	74.9	45	52.1	1	4	68	0.00	29.957 
19:20	74.7	74.7	74.7	46	52.5	1	3	68	0.00	29.957 
19:25	74.6	74.6	74.6	47	53.0	0	3	68	0.00	29.957 
19:30	74.4	74.4	74.4	46	52.3	1	3	68	0.00	29.955 
19:35	74.4	74.4	74.4	46	52.3	0	2	68	0.00	29.955 
19:40	74.2	74.2	74.2	47	52.7	0	1	68	0.00	29.955 
19:45	74.2	74.2	74.2	49	53.8	0	1	68	0.00	29.956 
19:50	74.2	74.2	74.2	47	52.7	0	3	68	0.00	29.956 
19:55	74.0	74.0	74.0	48	53.0	0	0	---	0.00	29.956 
20:00	73.9	73.9	73.9	47	52.4	0	1	68	0.00	29.956 
20:05	73.7	73.7	73.7	48	52.8	0	1	68	0.00	29.956 
20:10	73.5	73.5	73.5	50	53.7	0	1	68	0.00	29.956 
20:15	73.3	73.3	73.3	52	54.6	0	1	68	0.00	29.957 
20:20	73.0	73.0	73.0	51	53.8	0	1	68	0.00	29.957 
20:25	72.8	72.8	72.8	53	54.7	0	0	---	0.00	29.957 
20:30	72.5	72.5	72.5	53	54.4	0	1	68	0.00	29.951 
20:35	72.3	72.3	72.3	54	54.7	0	1	68	0.00	29.951 
20:40	72.1	72.1	72.1	54	54.5	0	1	68	0.00	29.951 
20:45	72.0	72.0	72.0	55	54.9	0	1	68	0.00	29.957 
20:50	71.8	71.8	71.8	56	55.2	0	1	68	0.00	29.957 
20:55	71.5	71.5	71.5	57	55.5	0	0	---	0.00	29.957 
21:00	71.1	71.1	71.1	57	55.1	0	1	68	0.00	29.958 
21:05	70.9	70.9	70.9	58	55.4	0	0	---	0.00	29.958 
21:10	70.6	70.6	70.6	59	55.6	0	0	---	0.00	29.958 
21:15	70.3	70.3	70.3	60	55.7	0	0	---	0.00	29.957 
21:20	69.9	69.9	69.9	60	55.4	0	1	68	0.00	29.957 
21:25	69.6	69.6	69.6	62	56.0	0	0	---	0.00	29.957 
21:30	69.3	69.3	69.3	62	55.7	0	0	---	0.00	29.960 
21:35	68.9	68.9	68.9	63	55.8	0	0	---	0.00	29.960 
21:40	68.6	68.6	68.6	63	55.5	0	0	---	0.00	29.960 
21:45	68.3	68.3	68.3	65	56.1	0	0	---	0.00	29.965 
21:50	67.8	67.8	67.8	65	55.6	0	0	---	0.00	29.965 
21:55	67.6	67.6	67.6	66	55.8	0	1	68	0.00	29.965 
22:00	67.3	67.3	67.3	67	56.0	0	0	---	0.00	29.966 
22:05	67.1	67.1	67.1	67	55.8	0	0	---	0.00	29.966 
22:10	66.9	66.9	66.9	67	55.6	0	0	---	0.00	29.966 
22:15	66.8	66.8	66.8	68	55.9	0	0	---	0.00	29.967 
22:20	66.6	66.6	66.6	69	56.1	0	1	68	0.00	29.967 
22:25	66.6	66.6	66.6	68	55.7	0	1	68	0.00	29.967 
22:30	66.8	66.8	66.8	67	55.5	0	2	68	0.00	29.970 
22:35	66.9	66.9	66.9	67	55.6	0	1	68	0.00	29.970 
22:40	66.9	66.9	66.9	67	55.6	0	1	68	0.00	29.970 
22:45	66.9	66.9	66.9	67	55.6	0	1	68	0.00	29.976 
22:50	66.8	66.8	66.8	67	55.5	0	0	---	0.00	29.976 
22:55	66.6	66.6	66.6	68	55.7	0	0	---	0.00	29.976 
23:00	66.4	66.4	66.4	68	55.5	0	0	---	0.00	29.985 
23:05	66.1	66.1	66.1	68	55.2	0	0	---	0.00	29.985 
23:10	65.8	65.8	65.8	68	54.9	0	0	---	0.00	29.985 
23:15	65.6	65.6	65.6	68	54.7	0	0	---	0.00	29.986 
23:20	65.5	65.5	65.5	68	54.7	0	0	---	0.00	29.986 
23:25	65.3	65.3	65.3	69	54.9	0	0	---	0.00	29.986 
23:30	65.2	65.2	65.2	71	55.6	0	0	---	0.00	29.989 
23:35	64.8	64.8	64.8	71	55.2	0	0	---	0.00	29.989 
23:40	64.3	64.3	64.3	72	55.1	0	0	---	0.00	29.989 
23:45	64.0	64.0	64.0	73	55.2	0	0	---	0.00	29.996 
23:50	63.9	63.9	63.9	73	55.1	0	0	---	0.00	29.996 
23:55	63.5	63.5	63.5	73	54.7	0	0	---	0.00	29.996 

CoCoRaHS
IN-AL-39
A2 Web Hosting
Creative Commons License
GoDaddy
search engine by freefind advanced

loaded 2018-11-16 01:23:25 • last modified 2010-11-18 10:43:29
Privacy PolicyDisclaimer
• wx.awcolley.com is powered by PmWiki v.2002016 •
• all content (unless otherwise noted) © 2018 A W Colley